Time;durP1;ratioP1;P1;durP2;ratioP2;P2;SDS_P1;SDS_P2;PMS_P1;PMS_P2;Temp;Humidity;BMP_temperature;BMP_pressure;BME280_temperature;BME280_humidity;BME280_pressure;Samples;Min_cycle;Max_cycle;Signal;HPM_P1;HPM_P2
2023/09/20 00:02:13;;;;;;;3.20;2.80;;;25.60;52.90;;;;;;5078291;28;20420;-80
2023/09/20 00:04:42;;;;;;;2.27;2.10;;;25.60;52.90;;;;;;5077763;28;20569;-80
2023/09/20 00:07:11;;;;;;;3.53;2.50;;;25.60;52.80;;;;;;5077562;28;20450;-80
2023/09/20 00:09:40;;;;;;;2.70;2.27;;;25.60;52.90;;;;;;5078301;28;20483;-80
2023/09/20 00:12:09;;;;;;;2.70;2.37;;;25.60;52.80;;;;;;5073289;28;20433;-80
2023/09/20 00:14:37;;;;;;;3.73;2.40;;;25.60;52.90;;;;;;5077143;28;20461;-80
2023/09/20 00:17:07;;;;;;;3.23;2.10;;;25.60;52.80;;;;;;5077513;28;20533;-80
2023/09/20 00:19:38;;;;;;;7.33;2.30;;;25.60;52.70;;;;;;5078269;28;20434;-80
2023/09/20 00:22:07;;;;;;;2.20;2.00;;;25.60;52.70;;;;;;5077693;28;20458;-80
2023/09/20 00:24:35;;;;;;;2.30;2.10;;;25.60;53.50;;;;;;5077083;28;20523;-80
2023/09/20 00:27:04;;;;;;;2.57;2.37;;;25.60;52.90;;;;;;5077810;28;20445;-80
2023/09/20 00:29:33;;;;;;;4.27;2.40;;;25.50;52.80;;;;;;5078305;28;20453;-80
2023/09/20 00:32:02;;;;;;;3.00;2.20;;;25.60;52.90;;;;;;5068748;28;20430;-80
2023/09/20 00:34:32;;;;;;;2.00;1.90;;;25.60;53.00;;;;;;5074160;28;20465;-80
2023/09/20 00:37:01;;;;;;;2.27;2.10;;;25.60;52.90;;;;;;5069956;28;20441;-80
2023/09/20 00:39:30;;;;;;;2.03;1.90;;;25.50;52.80;;;;;;5077452;28;20487;-80
2023/09/20 00:41:58;;;;;;;2.53;2.03;;;25.60;52.90;;;;;;5069733;28;20417;-79
2023/09/20 00:44:26;;;;;;;3.30;2.07;;;25.60;53.00;;;;;;5078544;28;20800;-80
2023/09/20 00:46:55;;;;;;;5.00;2.33;;;25.60;52.90;;;;;;5077134;28;20556;-79
2023/09/20 00:49:24;;;;;;;2.73;2.10;;;25.50;52.70;;;;;;5093873;28;20494;-80
2023/09/20 00:51:53;;;;;;;6.33;2.00;;;25.60;53.00;;;;;;5093369;28;20446;-80
2023/09/20 00:54:22;;;;;;;3.10;2.50;;;25.50;52.80;;;;;;5088308;28;20970;-80
2023/09/20 00:56:50;;;;;;;4.63;2.37;;;25.50;53.00;;;;;;5086077;28;20450;-79
2023/09/20 00:59:18;;;;;;;2.60;1.83;;;25.50;52.80;;;;;;5085546;28;20442;-79
2023/09/20 01:01:46;;;;;;;2.70;1.93;;;25.50;53.00;;;;;;5083155;28;20441;-80
2023/09/20 01:04:14;;;;;;;2.13;1.97;;;25.50;53.00;;;;;;5078596;28;20500;-80
2023/09/20 01:06:46;;;;;;;1.97;1.87;;;25.50;53.00;;;;;;5083000;28;20505;-80
2023/09/20 01:09:16;;;;;;;5.67;2.03;;;25.50;52.80;;;;;;5077173;28;20496;-81
2023/09/20 01:11:44;;;;;;;3.13;1.90;;;25.50;52.90;;;;;;5062783;28;20457;-80
2023/09/20 01:14:12;;;;;;;3.10;1.90;;;25.50;53.70;;;;;;5065689;28;20462;-80
2023/09/20 01:16:41;;;;;;;2.70;2.40;;;25.60;53.00;;;;;;5073883;28;20434;-80
2023/09/20 01:19:09;;;;;;;2.30;2.10;;;25.50;53.10;;;;;;5069870;28;20543;-80
2023/09/20 01:21:40;;;;;;;4.87;2.23;;;25.50;53.10;;;;;;5081146;28;20439;-80
2023/09/20 01:24:09;;;;;;;1.90;1.77;;;25.50;53.00;;;;;;5082533;28;20514;-81
2023/09/20 01:26:42;;;;;;;3.90;2.17;;;25.40;53.20;;;;;;5083632;28;20475;-80
2023/09/20 01:29:12;;;;;;;3.50;2.00;;;25.40;53.20;;;;;;5077249;28;20445;-80
2023/09/20 01:31:40;;;;;;;3.20;2.17;;;25.40;53.30;;;;;;5084390;28;20408;-81
2023/09/20 01:34:09;;;;;;;5.13;2.37;;;25.50;53.30;;;;;;5084412;28;20469;-80
2023/09/20 01:36:37;;;;;;;2.20;2.00;;;25.50;53.30;;;;;;5081662;28;20424;-80
2023/09/20 01:39:09;;;;;;;1.77;1.60;;;25.40;53.20;;;;;;5081842;28;20479;-81
2023/09/20 01:41:37;;;;;;;3.13;2.00;;;25.50;53.20;;;;;;5073757;28;20485;-81
2023/09/20 01:44:06;;;;;;;2.50;1.90;;;25.40;53.20;;;;;;5075338;28;20544;-80
2023/09/20 01:46:36;;;;;;;1.90;1.80;;;25.40;53.30;;;;;;5077080;28;20477;-80
2023/09/20 01:49:05;;;;;;;3.20;2.33;;;25.40;53.20;;;;;;5074688;28;20444;-80
2023/09/20 01:51:33;;;;;;;2.23;1.90;;;25.40;53.30;;;;;;5083101;28;20445;-80
2023/09/20 01:54:02;;;;;;;1.87;1.77;;;25.40;53.40;;;;;;5064693;28;20452;-80
2023/09/20 01:56:33;;;;;;;4.70;2.13;;;25.40;53.40;;;;;;5082696;28;20408;-80
2023/09/20 01:59:01;;;;;;;1.80;1.70;;;25.40;53.40;;;;;;5081853;28;20812;-80
2023/09/20 02:01:29;;;;;;;3.17;2.30;;;25.40;53.50;;;;;;5081868;28;20412;-79
2023/09/20 02:03:59;;;;;;;3.50;2.10;;;25.40;53.50;;;;;;5081717;28;20448;-80
2023/09/20 02:06:27;;;;;;;2.17;1.70;;;25.40;53.40;;;;;;5080561;28;20456;-80
2023/09/20 02:08:55;;;;;;;4.07;2.33;;;25.40;53.50;;;;;;5080996;28;20465;-80
2023/09/20 02:11:23;;;;;;;3.03;2.03;;;25.40;53.60;;;;;;5077505;28;20463;-80
2023/09/20 02:13:54;;;;;;;13.57;1.87;;;25.40;53.50;;;;;;5079684;28;20466;-80
2023/09/20 02:16:22;;;;;;;2.90;2.10;;;25.40;53.60;;;;;;5079150;28;20457;-80
2023/09/20 02:18:51;;;;;;;3.20;2.07;;;25.40;53.40;;;;;;5078412;28;20538;-80
2023/09/20 02:21:19;;;;;;;4.43;2.70;;;25.30;53.50;;;;;;5077877;28;20468;-80
2023/09/20 02:23:47;;;;;;;3.17;2.60;;;25.30;53.50;;;;;;5077770;28;20465;-79
2023/09/20 02:26:16;;;;;;;2.40;2.30;;;25.30;53.60;;;;;;5077306;28;20494;-80
2023/09/20 02:28:44;;;;;;;3.97;2.70;;;25.30;53.50;;;;;;5074582;28;20464;-80
2023/09/20 02:31:18;;;;;;;4.73;2.83;;;25.30;53.40;;;;;;5077919;28;20502;-79
2023/09/20 02:33:46;;;;;;;4.13;3.10;;;25.30;53.50;;;;;;5078239;28;20515;-80
2023/09/20 02:36:14;;;;;;;5.53;2.67;;;25.30;53.60;;;;;;5078188;28;20413;-80
2023/09/20 02:38:42;;;;;;;3.40;2.93;;;25.30;53.50;;;;;;5078310;28;20976;-80
2023/09/20 02:41:11;;;;;;;4.47;3.60;;;25.30;53.60;;;;;;5077014;28;20452;-80
2023/09/20 02:43:40;;;;;;;5.20;3.67;;;25.30;53.60;;;;;;5078263;28;20436;-80
2023/09/20 02:46:08;;;;;;;3.13;2.90;;;25.40;53.60;;;;;;5074995;28;20535;-80
2023/09/20 02:48:38;;;;;;;4.30;3.70;;;25.30;53.50;;;;;;5077427;28;20427;-80
2023/09/20 02:51:06;;;;;;;3.07;2.80;;;25.30;53.50;;;;;;5078920;28;20443;-80
2023/09/20 02:53:35;;;;;;;5.73;3.60;;;25.30;53.60;;;;;;5076524;28;20440;-80
2023/09/20 02:56:05;;;;;;;5.07;3.50;;;25.30;53.60;;;;;;5057668;28;20446;-80
2023/09/20 02:58:33;;;;;;;5.43;3.30;;;25.30;53.50;;;;;;5057101;28;20501;-80
2023/09/20 03:01:02;;;;;;;3.47;3.17;;;25.30;53.50;;;;;;5067350;28;20476;-80
2023/09/20 03:03:30;;;;;;;6.63;3.60;;;25.30;53.50;;;;;;5076172;28;20551;-79
2023/09/20 03:06:09;;;;;;;3.50;3.20;;;25.30;53.60;;;;;;5077544;28;20478;-80
2023/09/20 03:08:44;;;;;;;3.50;3.20;;;25.30;53.40;;;;;;5078511;28;20503;-80
2023/09/20 03:11:20;;;;;;;4.40;3.30;;;25.30;53.40;;;;;;5078906;28;20512;-80
2023/09/20 03:13:48;;;;;;;4.83;3.57;;;25.30;53.40;;;;;;5077395;28;20436;-80
2023/09/20 03:16:18;;;;;;;5.23;3.10;;;25.30;53.40;;;;;;5078859;28;20448;-79
2023/09/20 03:18:49;;;;;;;5.37;3.30;;;25.30;53.40;;;;;;5075859;28;20457;-78
2023/09/20 03:21:23;;;;;;;4.70;3.80;;;25.30;53.40;;;;;;5068281;28;20450;-78
2023/09/20 03:23:59;;;;;;;9.53;3.10;;;25.30;53.50;;;;;;5074756;28;20500;-78
2023/09/20 03:26:32;;;;;;;3.53;3.20;;;25.30;53.40;;;;;;5060808;28;20497;-78
2023/09/20 03:29:07;;;;;;;5.30;3.43;;;25.30;53.40;;;;;;5053914;28;20425;-78
2023/09/20 03:31:43;;;;;;;3.13;2.90;;;25.30;53.40;;;;;;5060247;28;20511;-79
2023/09/20 03:34:21;;;;;;;3.87;2.60;;;25.30;53.40;;;;;;5069647;28;20446;-78
2023/09/20 03:36:57;;;;;;;5.60;3.10;;;25.30;53.40;;;;;;5071170;28;20433;-78
2023/09/20 03:39:28;;;;;;;3.50;3.20;;;25.30;53.40;;;;;;5075623;28;20457;-78
2023/09/20 03:42:00;;;;;;;3.90;3.00;;;25.30;53.30;;;;;;5076700;28;20452;-79
2023/09/20 03:44:39;;;;;;;3.60;3.13;;;25.30;53.40;;;;;;5077534;28;20436;-78
2023/09/20 03:47:19;;;;;;;2.73;2.53;;;25.30;53.50;;;;;;5077810;28;20440;-78
2023/09/20 03:50:04;;;;;;;4.27;2.90;;;25.30;53.40;;;;;;5079586;28;20430;-78
2023/09/20 03:52:36;;;;;;;5.23;3.00;;;25.30;53.30;;;;;;5090305;28;20436;-78
2023/09/20 03:55:10;;;;;;;6.93;2.73;;;25.30;53.20;;;;;;5093710;28;20434;-79
2023/09/20 03:57:40;;;;;;;4.10;3.20;;;25.30;53.50;;;;;;5083743;28;20438;-79
2023/09/20 04:00:11;;;;;;;3.17;2.50;;;25.30;53.30;;;;;;5073065;28;20439;-79
2023/09/20 04:02:48;;;;;;;3.07;2.60;;;25.30;53.50;;;;;;5062840;28;20842;-79
2023/09/20 04:05:19;;;;;;;4.07;3.13;;;25.30;53.30;;;;;;5064159;28;20415;-79
2023/09/20 04:08:18;;;;;;;4.37;2.67;;;25.30;53.40;;;;;;5080002;28;20479;-79
2023/09/20 04:10:47;;;;;;;3.80;2.83;;;25.30;53.50;;;;;;5079291;28;20477;-79
2023/09/20 04:13:22;;;;;;;2.90;2.53;;;25.20;53.40;;;;;;5079582;28;20436;-79
2023/09/20 04:15:55;;;;;;;6.67;2.90;;;25.30;53.30;;;;;;5081516;28;20420;-79
2023/09/20 04:18:26;;;;;;;4.13;2.50;;;25.30;53.40;;;;;;5080219;28;20448;-79
2023/09/20 04:20:57;;;;;;;3.97;3.00;;;25.20;53.40;;;;;;5080770;28;20502;-79
2023/09/20 04:23:33;;;;;;;2.80;2.60;;;25.30;53.50;;;;;;5079493;28;21002;-79
2023/09/20 04:26:06;;;;;;;4.90;2.53;;;25.30;53.40;;;;;;5080460;28;20436;-78
2023/09/20 04:28:37;;;;;;;3.80;2.33;;;25.30;53.50;;;;;;5077711;28;20473;-78
2023/09/20 04:31:12;;;;;;;4.27;2.30;;;25.30;53.60;;;;;;5081967;28;20525;-79
2023/09/20 04:33:41;;;;;;;3.70;2.57;;;25.30;53.60;;;;;;5081391;28;20469;-79
2023/09/20 04:36:27;;;;;;;3.93;2.40;;;25.30;53.50;;;;;;5080480;28;20453;-79
2023/09/20 04:39:11;;;;;;;3.10;2.30;;;25.30;53.40;;;;;;5079828;28;20469;-79
2023/09/20 04:41:46;;;;;;;3.47;2.57;;;25.20;53.50;;;;;;5059893;28;20936;-79
2023/09/20 04:44:20;;;;;;;2.63;2.33;;;25.20;53.40;;;;;;5059733;28;20441;-78
2023/09/20 04:46:50;;;;;;;2.27;2.07;;;25.20;53.50;;;;;;5068951;28;20428;-79
2023/09/20 04:49:21;;;;;;;2.93;2.50;;;25.30;53.60;;;;;;5079936;28;20454;-79
2023/09/20 04:51:59;;;;;;;2.20;1.93;;;25.20;53.50;;;;;;5079480;28;20415;-79
2023/09/20 04:54:33;;;;;;;4.80;2.53;;;25.30;53.60;;;;;;5078431;28;20522;-79
2023/09/20 04:57:13;;;;;;;2.40;2.20;;;25.30;53.50;;;;;;5078895;28;20441;-79
2023/09/20 04:59:48;;;;;;;2.97;2.47;;;25.30;53.50;;;;;;5080034;28;20419;-78
2023/09/20 05:02:22;;;;;;;3.80;2.50;;;25.20;53.30;;;;;;5077078;28;20495;-79
2023/09/20 05:05:09;;;;;;;4.17;2.30;;;25.20;53.50;;;;;;5070715;28;20509;-80
2023/09/20 05:08:08;;;;;;;2.83;2.33;;;25.30;53.60;;;;;;5074268;28;20501;-79
2023/09/20 05:11:29;;;;;;;2.93;2.53;;;25.30;53.60;;;;;;5063054;28;20428;-80
2023/09/20 05:14:49;;;;;;;2.20;1.97;;;25.20;53.50;;;;;;5061439;28;20453;-80
2023/09/20 05:17:49;;;;;;;3.10;2.43;;;25.20;53.50;;;;;;5076497;28;20411;-80
2023/09/20 05:20:32;;;;;;;2.43;2.23;;;25.20;53.80;;;;;;5073689;28;20959;-80
2023/09/20 05:23:22;;;;;;;3.00;2.70;;;25.20;53.80;;;;;;5074704;28;20461;-79
2023/09/20 05:26:16;;;;;;;5.07;2.33;;;25.20;53.70;;;;;;5075525;28;20610;-80
2023/09/20 05:28:50;;;;;;;2.43;2.10;;;25.20;53.60;;;;;;5070654;28;20474;-78
2023/09/20 05:31:18;;;;;;;4.50;2.83;;;25.20;53.70;;;;;;5077280;28;20424;-79
2023/09/20 05:33:48;;;;;;;3.40;2.43;;;25.20;54.40;;;;;;5076207;28;20552;-79
2023/09/20 05:36:21;;;;;;;2.70;2.40;;;25.20;53.70;;;;;;5076306;28;20511;-79
2023/09/20 05:38:53;;;;;;;2.17;1.97;;;25.20;53.80;;;;;;5076975;28;20412;-80
2023/09/20 05:41:30;;;;;;;2.83;2.50;;;25.20;53.70;;;;;;5080285;28;20453;-77
2023/09/20 05:44:04;;;;;;;5.50;2.67;;;25.20;53.80;;;;;;5076427;28;20458;-78
2023/09/20 05:46:35;;;;;;;7.43;2.57;;;25.20;53.70;;;;;;5071584;28;20431;-79
2023/09/20 05:49:04;;;;;;;5.33;2.70;;;25.10;53.70;;;;;;5078227;28;20494;-78
2023/09/20 05:51:34;;;;;;;2.23;2.13;;;25.20;53.70;;;;;;5069225;28;20457;-78
2023/09/20 05:54:05;;;;;;;5.03;2.83;;;25.20;53.80;;;;;;5077007;28;20428;-78
2023/09/20 05:56:38;;;;;;;3.37;2.47;;;25.20;53.70;;;;;;5077409;28;20446;-78
2023/09/20 05:59:08;;;;;;;2.30;2.10;;;25.20;53.70;;;;;;5078409;28;20412;-79
2023/09/20 06:01:41;;;;;;;5.00;2.40;;;25.20;53.70;;;;;;5077161;28;20484;-79
2023/09/20 06:04:16;;;;;;;4.00;2.37;;;25.20;53.60;;;;;;5079740;28;20472;-79
2023/09/20 06:06:54;;;;;;;3.67;2.30;;;25.20;53.60;;;;;;5079868;28;20476;-80
2023/09/20 06:09:36;;;;;;;2.83;2.53;;;25.20;53.60;;;;;;5081092;28;20466;-79
2023/09/20 06:12:09;;;;;;;4.20;2.47;;;25.20;53.50;;;;;;5080672;28;20574;-79
2023/09/20 06:14:38;;;;;;;2.93;2.67;;;25.30;53.60;;;;;;5072851;28;20438;-79
2023/09/20 06:17:06;;;;;;;2.83;2.53;;;25.30;53.50;;;;;;5078863;28;20446;-78
2023/09/20 06:19:35;;;;;;;5.47;2.87;;;25.30;53.50;;;;;;5076969;28;20544;-79
2023/09/20 06:22:06;;;;;;;7.70;2.70;;;25.30;53.50;;;;;;5075406;28;20423;-80
2023/09/20 06:24:56;;;;;;;3.00;2.20;;;25.30;53.40;;;;;;5071737;28;20445;-80
2023/09/20 06:27:31;;;;;;;2.90;2.40;;;25.30;53.40;;;;;;5052053;28;20445;-81
2023/09/20 06:30:47;;;;;;;3.53;2.53;;;25.30;53.40;;;;;;5076783;28;20412;-79
2023/09/20 06:39:34;;;;;;;2.50;2.30;;;25.40;53.50;;;;;;5034871;28;20408;-81
2023/09/20 06:42:29;;;;;;;4.70;2.90;;;25.40;53.40;;;;;;5081071;28;20503;-80
2023/09/20 06:45:12;;;;;;;3.17;2.53;;;25.40;53.30;;;;;;5079074;28;20420;-82
2023/09/20 06:47:46;;;;;;;5.20;2.57;;;25.40;53.30;;;;;;5081807;28;20457;-79
2023/09/20 06:50:15;;;;;;;4.63;2.57;;;25.40;53.20;;;;;;5082097;28;20441;-80
2023/09/20 06:52:46;;;;;;;5.33;2.50;;;25.50;53.30;;;;;;5079577;28;20461;-80
2023/09/20 06:55:28;;;;;;;2.37;2.17;;;25.50;53.30;;;;;;5083842;28;20454;-80
2023/09/20 06:58:04;;;;;;;3.23;2.47;;;25.50;53.30;;;;;;5089730;28;20447;-80
2023/09/20 07:01:03;;;;;;;4.27;2.33;;;25.50;53.50;;;;;;5082219;28;20860;-80
2023/09/20 07:03:39;;;;;;;3.50;2.00;;;25.50;53.40;;;;;;5079538;28;20448;-80
2023/09/20 07:06:09;;;;;;;5.30;2.67;;;25.50;53.40;;;;;;5073959;28;20432;-79
2023/09/20 07:08:45;;;;;;;4.00;2.30;;;25.50;53.20;;;;;;5070638;28;20549;-80
2023/09/20 07:11:15;;;;;;;2.30;2.10;;;25.60;53.30;;;;;;5076792;28;20435;-80
2023/09/20 07:13:52;;;;;;;5.23;2.30;;;25.60;53.30;;;;;;5070406;28;20536;-79
2023/09/20 07:16:23;;;;;;;4.67;2.73;;;25.60;53.20;;;;;;5072821;28;20432;-80
2023/09/20 07:18:55;;;;;;;5.10;2.20;;;25.70;53.20;;;;;;5071817;28;20926;-80
2023/09/20 07:21:37;;;;;;;3.60;2.20;;;25.70;52.90;;;;;;5072808;28;20454;-80
2023/09/20 07:24:12;;;;;;;4.00;2.30;;;25.70;53.00;;;;;;5072943;28;20460;-79
2023/09/20 07:26:43;;;;;;;6.03;2.50;;;25.80;53.10;;;;;;5078726;28;20448;-80
2023/09/20 07:29:13;;;;;;;3.17;2.20;;;25.80;53.10;;;;;;5076296;28;20448;-81
2023/09/20 07:31:49;;;;;;;2.90;1.90;;;25.80;53.00;;;;;;5068341;28;20431;-81
2023/09/20 07:34:33;;;;;;;3.80;1.90;;;25.90;52.90;;;;;;5073137;28;20450;-80
2023/09/20 07:37:07;;;;;;;2.90;2.27;;;25.90;52.90;;;;;;5077300;28;20444;-79
2023/09/20 07:39:36;;;;;;;3.63;2.00;;;26.00;52.80;;;;;;5078552;28;20513;-79
2023/09/20 07:42:05;;;;;;;2.80;2.00;;;26.10;52.70;;;;;;5078662;28;20490;-80
2023/09/20 07:44:40;;;;;;;2.30;2.10;;;26.10;52.80;;;;;;5072264;28;20432;-80
2023/09/20 07:47:13;;;;;;;3.20;2.30;;;26.10;52.70;;;;;;5073747;28;20419;-80
2023/09/20 07:49:47;;;;;;;3.87;1.90;;;26.20;52.80;;;;;;5067458;28;20470;-79
2023/09/20 07:52:15;;;;;;;3.37;1.93;;;26.20;52.80;;;;;;5068786;28;20507;-79
2023/09/20 07:54:55;;;;;;;2.33;2.07;;;26.30;52.90;;;;;;5072483;28;20450;-80
2023/09/20 07:57:36;;;;;;;2.30;1.80;;;26.40;52.80;;;;;;5067496;28;20933;-80
2023/09/20 08:00:23;;;;;;;3.43;2.37;;;26.40;52.60;;;;;;5071773;28;20507;-79
2023/09/20 08:03:05;;;;;;;2.63;2.33;;;26.40;52.60;;;;;;5074622;28;20542;-80
2023/09/20 08:05:43;;;;;;;4.70;2.10;;;26.50;52.70;;;;;;5077407;28;20789;-79
2023/09/20 08:08:15;;;;;;;2.77;2.17;;;26.50;52.70;;;;;;5077388;28;20479;-80
2023/09/20 08:10:48;;;;;;;2.07;1.87;;;26.60;52.60;;;;;;5077250;28;20451;-80
2023/09/20 08:13:36;;;;;;;3.23;2.13;;;26.60;52.60;;;;;;5078533;28;20489;-79
2023/09/20 08:16:22;;;;;;;3.43;2.30;;;26.60;52.50;;;;;;5079304;28;20452;-80
2023/09/20 08:19:21;;;;;;;2.97;1.80;;;26.70;52.50;;;;;;5071593;28;20946;-78
2023/09/20 08:22:00;;;;;;;3.20;1.80;;;26.70;52.30;;;;;;5069518;28;20424;-78
2023/09/20 09:02:06;;;;;;;2.70;2.23;;;28.00;52.70;;;;;;5070304;28;20518;-80
2023/09/20 09:04:34;;;;;;;2.73;2.27;;;28.30;52.30;;;;;;5074434;28;20470;-79
2023/09/20 09:07:06;;;;;;;3.23;2.10;;;28.40;52.10;;;;;;5075673;28;20545;-80
2023/09/20 09:09:40;;;;;;;3.00;2.27;;;28.60;51.80;;;;;;5075682;28;20476;-80
2023/09/20 09:12:14;;;;;;;3.93;2.20;;;28.80;52.10;;;;;;5075645;28;20446;-78
2023/09/20 09:14:45;;;;;;;2.03;1.63;;;29.00;51.40;;;;;;5076270;28;20511;-81
2023/09/20 09:17:16;;;;;;;6.13;2.47;;;29.20;51.20;;;;;;5076595;28;20514;-80
2023/09/20 09:19:46;;;;;;;3.57;2.70;;;29.50;51.20;;;;;;5079178;28;20400;-81
2023/09/20 09:22:15;;;;;;;2.40;2.00;;;29.70;50.80;;;;;;5079173;28;20446;-78
2023/09/20 09:24:46;;;;;;;2.50;2.20;;;29.90;50.60;;;;;;5079549;28;20483;-80
2023/09/20 09:27:18;;;;;;;2.50;2.30;;;30.10;50.40;;;;;;5079946;28;20438;-80
2023/09/20 09:29:55;;;;;;;3.17;2.17;;;30.30;50.00;;;;;;5080082;28;20461;-80
2023/09/20 09:32:28;;;;;;;3.77;2.23;;;30.60;49.90;;;;;;5079565;28;20445;-81
2023/09/20 09:35:05;;;;;;;4.83;2.13;;;30.70;49.50;;;;;;5076431;28;20476;-81
2023/09/20 09:37:45;;;;;;;1.90;1.80;;;30.70;49.40;;;;;;5079805;28;20440;-81
2023/09/20 09:40:18;;;;;;;2.20;1.90;;;30.80;49.10;;;;;;5073431;28;20438;-81
2023/09/20 09:42:53;;;;;;;2.50;1.70;;;31.00;49.10;;;;;;5063077;28;20510;-81
2023/09/20 09:45:44;;;;;;;3.43;2.03;;;31.10;48.80;;;;;;5080064;28;20457;-82
2023/09/20 09:48:15;;;;;;;2.80;2.13;;;31.00;48.50;;;;;;5074314;28;20452;-81
2023/09/20 09:50:54;;;;;;;2.17;1.97;;;31.00;48.60;;;;;;5062591;28;20529;-79
2023/09/20 09:53:30;;;;;;;2.10;1.90;;;31.00;48.60;;;;;;5074011;28;20877;-79
2023/09/20 09:56:06;;;;;;;5.90;2.33;;;31.00;48.70;;;;;;5077061;28;20445;-79
2023/09/20 09:58:40;;;;;;;2.33;2.00;;;31.10;48.50;;;;;;5059485;28;20940;-80
2023/09/20 10:01:20;;;;;;;4.27;2.20;;;31.10;48.30;;;;;;5059731;28;20449;-80
2023/09/20 10:03:54;;;;;;;2.20;1.97;;;31.10;48.30;;;;;;5066502;28;21021;-79
2023/09/20 10:06:37;;;;;;;3.97;2.17;;;31.20;48.40;;;;;;5085000;28;20437;-79
2023/09/20 10:09:13;;;;;;;2.57;2.37;;;31.10;48.20;;;;;;5079854;28;20464;-79
2023/09/20 10:11:57;;;;;;;4.20;2.27;;;31.10;48.10;;;;;;5078712;28;20469;-80
2023/09/20 10:14:28;;;;;;;2.93;2.30;;;31.00;48.00;;;;;;5079835;28;20439;-79
2023/09/20 10:17:08;;;;;;;2.97;2.10;;;31.00;48.30;;;;;;5072035;28;20958;-77
2023/09/20 10:19:38;;;;;;;2.30;2.10;;;31.10;48.10;;;;;;5079228;28;20449;-79
2023/09/20 10:22:09;;;;;;;2.50;2.13;;;31.00;48.00;;;;;;5081676;28;20452;-78
2023/09/20 10:24:45;;;;;;;2.30;2.00;;;30.90;48.00;;;;;;5079173;28;20478;-79
2023/09/20 10:27:17;;;;;;;4.60;2.03;;;30.80;48.10;;;;;;5063125;28;20442;-79
2023/09/20 10:30:09;;;;;;;3.53;2.00;;;30.80;48.10;;;;;;5076270;28;20475;-78
2023/09/20 10:32:53;;;;;;;2.30;2.10;;;30.80;48.20;;;;;;5078052;28;20530;-78
2023/09/20 10:35:27;;;;;;;3.67;2.00;;;30.80;48.00;;;;;;5078199;28;20449;-80
2023/09/20 10:38:04;;;;;;;3.20;2.20;;;30.80;48.00;;;;;;5078367;28;20472;-78
2023/09/20 10:41:00;;;;;;;3.03;1.97;;;30.80;48.00;;;;;;5077823;28;20476;-79
2023/09/20 10:43:54;;;;;;;2.27;2.07;;;30.90;47.90;;;;;;5075839;28;20463;-79
2023/09/20 10:46:24;;;;;;;2.20;2.00;;;30.90;47.80;;;;;;5073175;28;20449;-78
2023/09/20 10:48:53;;;;;;;4.60;2.30;;;30.90;47.80;;;;;;5075966;28;20420;-80
2023/09/20 10:51:48;;;;;;;2.63;2.20;;;30.90;47.70;;;;;;5083122;28;20473;-80
2023/09/20 10:54:22;;;;;;;3.90;2.00;;;30.90;47.70;;;;;;5084133;28;20482;-79
2023/09/20 10:57:07;;;;;;;2.63;2.20;;;30.80;47.50;;;;;;5067457;28;20508;-79
2023/09/20 10:59:38;;;;;;;3.67;2.20;;;30.80;47.50;;;;;;5058689;28;20437;-80
2023/09/20 11:02:09;;;;;;;2.23;2.03;;;30.80;47.60;;;;;;5063022;28;20454;-79
2023/09/20 11:04:38;;;;;;;4.23;1.83;;;30.90;47.70;;;;;;5090940;22;20498;-79
2023/09/20 11:07:14;;;;;;;1.73;1.63;;;31.00;47.50;;;;;;5075761;28;20480;-81
2023/09/20 11:09:46;;;;;;;2.00;1.80;;;31.00;47.10;;;;;;5071703;28;20451;-79
2023/09/20 11:12:17;;;;;;;2.33;2.13;;;31.10;47.50;;;;;;5061433;28;20492;-78
2023/09/20 11:14:47;;;;;;;2.40;2.20;;;31.10;46.90;;;;;;5063603;28;20459;-80
2023/09/20 11:17:18;;;;;;;2.10;2.00;;;31.20;47.20;;;;;;5062313;28;20435;-80
2023/09/20 11:19:48;;;;;;;10.60;2.50;;;31.40;46.70;;;;;;5063759;28;20449;-79
2023/09/20 11:22:16;;;;;;;2.60;2.40;;;31.40;46.60;;;;;;5069278;28;20457;-79
2023/09/20 11:24:45;;;;;;;2.10;2.00;;;32.00;48.00;;;;;;5062439;28;20462;-80
2023/09/20 11:27:14;;;;;;;3.83;1.90;;;33.10;44.70;;;;;;5055887;28;20462;-80
2023/09/20 11:29:54;;;;;;;2.40;2.00;;;33.30;43.50;;;;;;5060465;28;20451;-80
2023/09/20 11:32:23;;;;;;;3.20;2.33;;;33.00;43.60;;;;;;5059460;28;20473;-80
2023/09/20 11:34:58;;;;;;;2.33;2.00;;;32.80;44.40;;;;;;5058691;28;20442;-80
2023/09/20 11:37:30;;;;;;;3.43;2.10;;;32.70;44.30;;;;;;5056850;28;20495;-79
2023/09/20 11:40:01;;;;;;;2.30;2.10;;;32.70;44.00;;;;;;5058933;28;20435;-81
2023/09/20 11:42:36;;;;;;;2.50;2.30;;;33.80;42.40;;;;;;5056750;28;20553;-80
2023/09/20 11:45:17;;;;;;;2.40;1.80;;;34.90;42.20;;;;;;5053295;28;20482;-79
2023/09/20 11:48:07;;;;;;;2.87;2.03;;;35.00;40.50;;;;;;5058333;28;20521;-79
2023/09/20 11:50:40;;;;;;;3.30;2.00;;;34.60;41.00;;;;;;5058837;28;20438;-80
2023/09/20 11:53:08;;;;;;;2.17;1.80;;;34.60;40.80;;;;;;5058433;28;20466;-81
2023/09/20 11:55:37;;;;;;;1.80;1.70;;;36.40;41.40;;;;;;5059888;28;20442;-80
2023/09/20 11:58:05;;;;;;;1.90;1.70;;;37.90;38.60;;;;;;5058115;28;20492;-79
2023/09/20 12:00:35;;;;;;;1.93;1.70;;;37.80;35.80;;;;;;5059068;28;20443;-80
2023/09/20 12:03:03;;;;;;;1.80;1.80;;;37.30;37.40;;;;;;5060693;28;20451;-79
2023/09/20 12:05:34;;;;;;;2.07;1.97;;;36.60;37.10;;;;;;5062105;28;20453;-78
2023/09/20 12:08:06;;;;;;;2.00;1.90;;;36.00;38.40;;;;;;5062531;28;20450;-78
2023/09/20 12:10:34;;;;;;;2.63;2.43;;;35.40;38.60;;;;;;5060639;28;20442;-79
2023/09/20 12:13:03;;;;;;;2.43;2.20;;;34.90;39.20;;;;;;5057279;28;20430;-80
2023/09/20 12:15:32;;;;;;;2.20;2.10;;;34.70;40.20;;;;;;5057984;28;20473;-79
2023/09/20 12:18:03;;;;;;;3.03;2.23;;;35.00;42.00;;;;;;5055543;28;20459;-79
2023/09/20 12:20:31;;;;;;;1.70;1.60;;;37.10;39.30;;;;;;5058315;28;20477;-79
2023/09/20 12:23:03;;;;;;;2.00;1.90;;;37.70;36.70;;;;;;5056486;28;20499;-79
2023/09/20 12:25:31;;;;;;;1.77;1.70;;;37.80;35.20;;;;;;5056172;28;20450;-79
2023/09/20 12:28:00;;;;;;;1.93;1.73;;;38.50;35.00;;;;;;5056484;28;20450;-79
2023/09/20 12:30:31;;;;;;;2.30;1.73;;;37.70;35.40;;;;;;5057670;28;20481;-79
2023/09/20 12:33:00;;;;;;;3.30;2.00;;;37.50;36.00;;;;;;5056599;28;20431;-80
2023/09/20 12:35:33;;;;;;;2.03;1.93;;;37.80;35.90;;;;;;5050213;28;20462;-80
2023/09/20 12:38:02;;;;;;;2.03;1.93;;;39.80;35.90;;;;;;5055166;28;20438;-80
2023/09/20 12:40:30;;;;;;;1.80;1.70;;;40.70;34.40;;;;;;5058399;28;20453;-80
2023/09/20 12:43:01;;;;;;;2.80;1.90;;;41.20;32.10;;;;;;5062012;28;20473;-79
2023/09/20 12:45:29;;;;;;;1.60;1.53;;;40.40;32.30;;;;;;5057416;28;20513;-78
2023/09/20 12:47:56;;;;;;;1.97;1.87;;;39.40;33.20;;;;;;5061378;28;20434;-78
2023/09/20 12:50:25;;;;;;;1.67;1.57;;;39.20;35.90;;;;;;5063404;28;20476;-78
2023/09/20 12:52:56;;;;;;;1.50;1.50;;;40.40;35.10;;;;;;5062110;28;20444;-80
2023/09/20 12:55:25;;;;;;;1.60;1.60;;;42.10;32.80;;;;;;5063670;28;20461;-78
2023/09/20 12:57:53;;;;;;;1.47;1.43;;;42.70;30.40;;;;;;5065275;28;20458;-79
2023/09/20 13:00:25;;;;;;;1.63;1.53;;;42.30;30.00;;;;;;5064707;28;20442;-80
2023/09/20 13:03:11;;;;;;;1.77;1.70;;;41.80;30.10;;;;;;5064327;28;21026;-79
2023/09/20 13:05:40;;;;;;;1.83;1.70;;;41.70;31.50;;;;;;5062971;28;20453;-80
2023/09/20 13:08:13;;;;;;;1.90;1.80;;;41.40;30.90;;;;;;5063410;28;20430;-80
2023/09/20 13:10:41;;;;;;;1.60;1.50;;;42.40;31.80;;;;;;5062481;28;20433;-81
2023/09/20 13:13:09;;;;;;;3.70;2.03;;;42.10;29.90;;;;;;5049297;28;20430;-79
2023/09/20 13:15:39;;;;;;;1.60;1.60;;;42.40;31.40;;;;;;5060289;28;20473;-80
2023/09/20 13:18:09;;;;;;;1.70;1.60;;;42.60;29.30;;;;;;5059439;28;20433;-79
2023/09/20 13:20:42;;;;;;;1.77;1.67;;;41.80;30.10;;;;;;5058539;28;20763;-77
2023/09/20 13:23:11;;;;;;;1.80;1.70;;;40.80;31.00;;;;;;5058261;28;20473;-79
2023/09/20 13:25:41;;;;;;;2.00;1.90;;;39.90;32.10;;;;;;5059317;28;20913;-79
2023/09/20 13:28:10;;;;;;;1.97;1.87;;;40.10;33.50;;;;;;5052312;28;20454;-80
2023/09/20 13:30:40;;;;;;;1.80;1.70;;;40.50;32.80;;;;;;5059716;28;20426;-79
2023/09/20 13:33:10;;;;;;;1.77;1.53;;;41.00;32.20;;;;;;5058785;28;20430;-78
2023/09/20 13:35:39;;;;;;;1.70;1.60;;;41.00;31.60;;;;;;5059188;28;20525;-79
2023/09/20 13:38:08;;;;;;;2.80;1.50;;;40.80;32.50;;;;;;5058506;28;20777;-79
2023/09/20 13:40:38;;;;;;;1.90;1.80;;;40.30;31.70;;;;;;5058958;28;20426;-79
2023/09/20 13:46:00;;;;;;;2.40;2.20;;;39.40;32.90;;;;;;5058174;28;20466;-79
2023/09/20 13:48:28;;;;;;;2.13;2.07;;;38.90;33.20;;;;;;5061430;28;20469;-79
2023/09/20 13:50:57;;;;;;;2.00;1.90;;;38.50;34.20;;;;;;5062250;28;20466;-79
2023/09/20 13:53:28;;;;;;;2.13;2.00;;;38.40;34.80;;;;;;5060342;28;20462;-80
2023/09/20 13:56:05;;;;;;;2.07;1.97;;;38.30;34.60;;;;;;5055902;28;20477;-77
2023/09/20 13:58:34;;;;;;;2.53;2.33;;;38.00;34.80;;;;;;5057296;28;20446;-78
2023/09/20 14:01:06;;;;;;;1.87;1.73;;;37.70;35.00;;;;;;5060065;28;20477;-80
2023/09/20 14:03:39;;;;;;;2.00;1.90;;;37.90;34.90;;;;;;5057476;28;20527;-78
2023/09/20 14:06:10;;;;;;;1.87;1.77;;;38.40;35.40;;;;;;5063434;28;20450;-78
2023/09/20 14:08:38;;;;;;;1.87;1.77;;;38.80;34.20;;;;;;5058322;28;20443;-78